sensor_id;sensor_type;location;lat;lon;timestamp;P1;durP1;ratioP1;P2;durP2;ratioP2
56329;SDS011;42236;48.058;10.632;2023-02-28T00:00:00;2.43;;;1.47;;
56329;SDS011;42236;48.058;10.632;2023-02-28T00:02:46;2.87;;;1.20;;
56329;SDS011;42236;48.058;10.632;2023-02-28T00:05:32;3.37;;;1.40;;
56329;SDS011;42236;48.058;10.632;2023-02-28T00:08:18;1.80;;;1.17;;
56329;SDS011;42236;48.058;10.632;2023-02-28T00:11:11;3.27;;;1.27;;
56329;SDS011;42236;48.058;10.632;2023-02-28T00:13:58;1.30;;;1.00;;
56329;SDS011;42236;48.058;10.632;2023-02-28T00:16:44;2.13;;;1.00;;
56329;SDS011;42236;48.058;10.632;2023-02-28T00:19:29;2.10;;;1.17;;
56329;SDS011;42236;48.058;10.632;2023-02-28T00:22:15;1.83;;;1.10;;
56329;SDS011;42236;48.058;10.632;2023-02-28T00:25:03;1.17;;;1.07;;
56329;SDS011;42236;48.058;10.632;2023-02-28T00:27:50;1.77;;;1.17;;
56329;SDS011;42236;48.058;10.632;2023-02-28T00:30:36;1.30;;;1.20;;
56329;SDS011;42236;48.058;10.632;2023-02-28T00:33:22;3.37;;;1.53;;
56329;SDS011;42236;48.058;10.632;2023-02-28T00:36:08;1.57;;;1.00;;
56329;SDS011;42236;48.058;10.632;2023-02-28T00:38:55;0.90;;;0.87;;
56329;SDS011;42236;48.058;10.632;2023-02-28T00:41:40;2.70;;;1.00;;
56329;SDS011;42236;48.058;10.632;2023-02-28T00:44:26;4.40;;;1.40;;
56329;SDS011;42236;48.058;10.632;2023-02-28T00:47:12;4.07;;;1.27;;
56329;SDS011;42236;48.058;10.632;2023-02-28T00:49:57;2.07;;;1.30;;
56329;SDS011;42236;48.058;10.632;2023-02-28T00:52:43;1.73;;;1.10;;
56329;SDS011;42236;48.058;10.632;2023-02-28T00:55:29;1.10;;;1.00;;
56329;SDS011;42236;48.058;10.632;2023-02-28T00:58:15;1.87;;;1.30;;
56329;SDS011;42236;48.058;10.632;2023-02-28T01:01:00;1.73;;;1.30;;
56329;SDS011;42236;48.058;10.632;2023-02-28T01:03:46;1.50;;;1.30;;
56329;SDS011;42236;48.058;10.632;2023-02-28T01:06:32;1.63;;;1.30;;
56329;SDS011;42236;48.058;10.632;2023-02-28T01:09:18;2.50;;;1.30;;
56329;SDS011;42236;48.058;10.632;2023-02-28T01:12:04;4.03;;;1.67;;
56329;SDS011;42236;48.058;10.632;2023-02-28T01:14:49;3.17;;;1.10;;
56329;SDS011;42236;48.058;10.632;2023-02-28T01:17:35;2.07;;;1.23;;
56329;SDS011;42236;48.058;10.632;2023-02-28T01:20:21;2.23;;;1.40;;
56329;SDS011;42236;48.058;10.632;2023-02-28T01:23:06;2.93;;;1.00;;
56329;SDS011;42236;48.058;10.632;2023-02-28T01:25:52;2.53;;;1.50;;
56329;SDS011;42236;48.058;10.632;2023-02-28T01:28:38;2.37;;;1.20;;
56329;SDS011;42236;48.058;10.632;2023-02-28T01:31:24;2.67;;;0.80;;
56329;SDS011;42236;48.058;10.632;2023-02-28T01:34:09;1.93;;;1.37;;
56329;SDS011;42236;48.058;10.632;2023-02-28T01:36:55;2.60;;;1.67;;
56329;SDS011;42236;48.058;10.632;2023-02-28T01:39:41;1.60;;;1.30;;
56329;SDS011;42236;48.058;10.632;2023-02-28T01:42:26;1.40;;;1.00;;
56329;SDS011;42236;48.058;10.632;2023-02-28T01:45:20;2.30;;;1.43;;
56329;SDS011;42236;48.058;10.632;2023-02-28T01:48:10;2.40;;;1.30;;
56329;SDS011;42236;48.058;10.632;2023-02-28T01:50:58;3.53;;;1.40;;
56329;SDS011;42236;48.058;10.632;2023-02-28T01:54:00;3.23;;;2.00;;
56329;SDS011;42236;48.058;10.632;2023-02-28T01:56:51;1.80;;;1.57;;
56329;SDS011;42236;48.058;10.632;2023-02-28T01:59:51;2.70;;;1.53;;
56329;SDS011;42236;48.058;10.632;2023-02-28T02:02:40;2.17;;;1.43;;
56329;SDS011;42236;48.058;10.632;2023-02-28T02:05:29;2.30;;;1.67;;
56329;SDS011;42236;48.058;10.632;2023-02-28T02:08:20;1.40;;;1.03;;
56329;SDS011;42236;48.058;10.632;2023-02-28T02:11:10;1.43;;;1.10;;
56329;SDS011;42236;48.058;10.632;2023-02-28T02:26:20;2.50;;;1.10;;
56329;SDS011;42236;48.058;10.632;2023-02-28T02:35:42;1.57;;;1.27;;
56329;SDS011;42236;48.058;10.632;2023-02-28T02:38:51;2.00;;;1.00;;
56329;SDS011;42236;48.058;10.632;2023-02-28T02:41:48;1.67;;;1.33;;
56329;SDS011;42236;48.058;10.632;2023-02-28T02:44:45;4.83;;;1.60;;
56329;SDS011;42236;48.058;10.632;2023-02-28T02:47:35;1.70;;;1.23;;
56329;SDS011;42236;48.058;10.632;2023-02-28T02:50:25;2.00;;;1.70;;
56329;SDS011;42236;48.058;10.632;2023-02-28T02:53:15;3.07;;;2.07;;
56329;SDS011;42236;48.058;10.632;2023-02-28T02:56:05;2.60;;;1.53;;
56329;SDS011;42236;48.058;10.632;2023-02-28T02:58:53;5.03;;;2.00;;
56329;SDS011;42236;48.058;10.632;2023-02-28T03:01:41;1.97;;;1.47;;
56329;SDS011;42236;48.058;10.632;2023-02-28T03:04:28;2.00;;;1.20;;
56329;SDS011;42236;48.058;10.632;2023-02-28T03:07:19;4.17;;;1.83;;
56329;SDS011;42236;48.058;10.632;2023-02-28T03:10:25;3.10;;;1.27;;
56329;SDS011;42236;48.058;10.632;2023-02-28T03:23:10;1.50;;;1.40;;
56329;SDS011;42236;48.058;10.632;2023-02-28T03:26:04;1.40;;;1.30;;
56329;SDS011;42236;48.058;10.632;2023-02-28T03:29:05;1.80;;;1.70;;
56329;SDS011;42236;48.058;10.632;2023-02-28T03:32:08;2.07;;;1.50;;
56329;SDS011;42236;48.058;10.632;2023-02-28T03:35:08;2.07;;;1.60;;
56329;SDS011;42236;48.058;10.632;2023-02-28T03:38:41;1.87;;;1.50;;
56329;SDS011;42236;48.058;10.632;2023-02-28T03:41:47;2.37;;;1.50;;
56329;SDS011;42236;48.058;10.632;2023-02-28T03:44:43;3.97;;;1.37;;
56329;SDS011;42236;48.058;10.632;2023-02-28T03:47:48;2.27;;;1.47;;
56329;SDS011;42236;48.058;10.632;2023-02-28T03:50:39;1.47;;;1.17;;
56329;SDS011;42236;48.058;10.632;2023-02-28T04:02:03;2.83;;;1.57;;
56329;SDS011;42236;48.058;10.632;2023-02-28T04:04:49;3.10;;;1.93;;
56329;SDS011;42236;48.058;10.632;2023-02-28T04:07:36;3.27;;;1.83;;
56329;SDS011;42236;48.058;10.632;2023-02-28T04:10:22;2.80;;;1.87;;
56329;SDS011;42236;48.058;10.632;2023-02-28T04:13:08;2.70;;;2.07;;
56329;SDS011;42236;48.058;10.632;2023-02-28T04:15:54;4.87;;;2.37;;
56329;SDS011;42236;48.058;10.632;2023-02-28T04:18:39;2.63;;;2.03;;
56329;SDS011;42236;48.058;10.632;2023-02-28T04:21:25;2.33;;;1.67;;
56329;SDS011;42236;48.058;10.632;2023-02-28T04:24:12;4.30;;;2.13;;
56329;SDS011;42236;48.058;10.632;2023-02-28T04:27:00;2.17;;;1.90;;
56329;SDS011;42236;48.058;10.632;2023-02-28T04:29:45;3.87;;;2.00;;
56329;SDS011;42236;48.058;10.632;2023-02-28T04:32:31;2.23;;;1.63;;
56329;SDS011;42236;48.058;10.632;2023-02-28T04:35:17;3.87;;;2.13;;
56329;SDS011;42236;48.058;10.632;2023-02-28T04:38:02;4.20;;;2.37;;
56329;SDS011;42236;48.058;10.632;2023-02-28T04:40:48;4.33;;;2.47;;
56329;SDS011;42236;48.058;10.632;2023-02-28T04:43:34;3.80;;;2.30;;
56329;SDS011;42236;48.058;10.632;2023-02-28T04:46:20;4.70;;;2.10;;
56329;SDS011;42236;48.058;10.632;2023-02-28T04:49:06;2.13;;;1.70;;
56329;SDS011;42236;48.058;10.632;2023-02-28T04:51:51;2.30;;;2.10;;
56329;SDS011;42236;48.058;10.632;2023-02-28T04:54:38;2.53;;;1.83;;
56329;SDS011;42236;48.058;10.632;2023-02-28T04:57:24;2.30;;;2.07;;
56329;SDS011;42236;48.058;10.632;2023-02-28T05:00:10;4.20;;;1.73;;
56329;SDS011;42236;48.058;10.632;2023-02-28T05:02:56;3.43;;;2.00;;
56329;SDS011;42236;48.058;10.632;2023-02-28T05:05:42;2.80;;;2.33;;
56329;SDS011;42236;48.058;10.632;2023-02-28T05:08:28;5.83;;;2.40;;
56329;SDS011;42236;48.058;10.632;2023-02-28T05:11:20;4.43;;;2.53;;
56329;SDS011;42236;48.058;10.632;2023-02-28T05:14:12;5.30;;;2.53;;
56329;SDS011;42236;48.058;10.632;2023-02-28T05:16:59;2.33;;;1.83;;
56329;SDS011;42236;48.058;10.632;2023-02-28T05:19:44;3.90;;;2.83;;
56329;SDS011;42236;48.058;10.632;2023-02-28T05:22:30;4.80;;;3.03;;
56329;SDS011;42236;48.058;10.632;2023-02-28T05:25:16;2.47;;;2.27;;
56329;SDS011;42236;48.058;10.632;2023-02-28T05:28:04;3.33;;;2.07;;
56329;SDS011;42236;48.058;10.632;2023-02-28T05:30:50;5.43;;;3.03;;
56329;SDS011;42236;48.058;10.632;2023-02-28T05:33:36;5.73;;;2.53;;
56329;SDS011;42236;48.058;10.632;2023-02-28T05:36:22;3.27;;;2.80;;
56329;SDS011;42236;48.058;10.632;2023-02-28T05:39:07;4.20;;;2.87;;
56329;SDS011;42236;48.058;10.632;2023-02-28T05:41:57;4.77;;;3.27;;
56329;SDS011;42236;48.058;10.632;2023-02-28T05:44:43;5.13;;;2.87;;
56329;SDS011;42236;48.058;10.632;2023-02-28T05:47:28;5.27;;;2.97;;
56329;SDS011;42236;48.058;10.632;2023-02-28T05:50:14;5.20;;;4.03;;
56329;SDS011;42236;48.058;10.632;2023-02-28T05:53:00;6.20;;;3.57;;
56329;SDS011;42236;48.058;10.632;2023-02-28T05:55:46;5.93;;;3.80;;
56329;SDS011;42236;48.058;10.632;2023-02-28T05:58:31;8.93;;;4.50;;
56329;SDS011;42236;48.058;10.632;2023-02-28T06:01:22;7.63;;;4.40;;
56329;SDS011;42236;48.058;10.632;2023-02-28T06:04:17;7.87;;;3.63;;
56329;SDS011;42236;48.058;10.632;2023-02-28T06:07:05;8.80;;;5.10;;
56329;SDS011;42236;48.058;10.632;2023-02-28T06:09:51;8.83;;;4.77;;
56329;SDS011;42236;48.058;10.632;2023-02-28T06:12:37;9.40;;;5.47;;
56329;SDS011;42236;48.058;10.632;2023-02-28T06:15:23;8.87;;;5.10;;
56329;SDS011;42236;48.058;10.632;2023-02-28T06:18:09;6.53;;;4.50;;
56329;SDS011;42236;48.058;10.632;2023-02-28T06:20:54;8.93;;;4.97;;
56329;SDS011;42236;48.058;10.632;2023-02-28T06:23:40;11.10;;;5.63;;
56329;SDS011;42236;48.058;10.632;2023-02-28T06:26:26;7.53;;;4.10;;
56329;SDS011;42236;48.058;10.632;2023-02-28T06:29:12;9.80;;;5.23;;
56329;SDS011;42236;48.058;10.632;2023-02-28T06:31:58;7.10;;;5.03;;
56329;SDS011;42236;48.058;10.632;2023-02-28T06:34:44;7.67;;;5.43;;
56329;SDS011;42236;48.058;10.632;2023-02-28T06:37:32;6.47;;;5.20;;
56329;SDS011;42236;48.058;10.632;2023-02-28T06:40:18;7.70;;;5.27;;
56329;SDS011;42236;48.058;10.632;2023-02-28T06:43:04;9.77;;;5.70;;
56329;SDS011;42236;48.058;10.632;2023-02-28T06:45:50;6.40;;;4.53;;
56329;SDS011;42236;48.058;10.632;2023-02-28T06:48:36;7.70;;;5.60;;
56329;SDS011;42236;48.058;10.632;2023-02-28T06:51:21;8.47;;;5.40;;
56329;SDS011;42236;48.058;10.632;2023-02-28T06:54:07;7.13;;;4.37;;
56329;SDS011;42236;48.058;10.632;2023-02-28T06:56:57;10.20;;;5.90;;
56329;SDS011;42236;48.058;10.632;2023-02-28T06:59:43;11.20;;;5.47;;
56329;SDS011;42236;48.058;10.632;2023-02-28T07:02:29;12.13;;;5.27;;
56329;SDS011;42236;48.058;10.632;2023-02-28T07:05:15;10.20;;;5.50;;
56329;SDS011;42236;48.058;10.632;2023-02-28T07:08:00;10.00;;;6.23;;
56329;SDS011;42236;48.058;10.632;2023-02-28T07:10:47;10.20;;;6.20;;
56329;SDS011;42236;48.058;10.632;2023-02-28T07:13:32;8.73;;;5.67;;
56329;SDS011;42236;48.058;10.632;2023-02-28T07:16:18;6.37;;;3.50;;
56329;SDS011;42236;48.058;10.632;2023-02-28T07:19:03;8.93;;;5.87;;
56329;SDS011;42236;48.058;10.632;2023-02-28T07:21:49;8.73;;;4.80;;
56329;SDS011;42236;48.058;10.632;2023-02-28T07:24:35;11.67;;;5.73;;
56329;SDS011;42236;48.058;10.632;2023-02-28T07:27:20;6.77;;;4.40;;
56329;SDS011;42236;48.058;10.632;2023-02-28T07:30:10;8.10;;;6.23;;
56329;SDS011;42236;48.058;10.632;2023-02-28T07:32:57;9.90;;;5.90;;
56329;SDS011;42236;48.058;10.632;2023-02-28T07:35:43;8.67;;;5.53;;
56329;SDS011;42236;48.058;10.632;2023-02-28T07:38:29;10.90;;;6.37;;
56329;SDS011;42236;48.058;10.632;2023-02-28T07:41:15;8.67;;;5.37;;
56329;SDS011;42236;48.058;10.632;2023-02-28T07:44:01;9.07;;;6.23;;
56329;SDS011;42236;48.058;10.632;2023-02-28T07:46:48;6.17;;;4.77;;
56329;SDS011;42236;48.058;10.632;2023-02-28T07:49:35;8.90;;;6.80;;
56329;SDS011;42236;48.058;10.632;2023-02-28T07:52:21;8.27;;;6.17;;
56329;SDS011;42236;48.058;10.632;2023-02-28T07:55:09;9.97;;;6.20;;
56329;SDS011;42236;48.058;10.632;2023-02-28T07:57:56;7.00;;;5.07;;
56329;SDS011;42236;48.058;10.632;2023-02-28T08:00:42;7.20;;;4.30;;
56329;SDS011;42236;48.058;10.632;2023-02-28T08:03:28;9.83;;;5.97;;
56329;SDS011;42236;48.058;10.632;2023-02-28T08:06:20;7.90;;;5.43;;
56329;SDS011;42236;48.058;10.632;2023-02-28T08:09:07;10.83;;;5.30;;
56329;SDS011;42236;48.058;10.632;2023-02-28T08:11:53;8.20;;;5.73;;
56329;SDS011;42236;48.058;10.632;2023-02-28T08:14:38;9.80;;;6.57;;
56329;SDS011;42236;48.058;10.632;2023-02-28T08:17:25;6.57;;;4.57;;
56329;SDS011;42236;48.058;10.632;2023-02-28T08:20:10;9.80;;;7.03;;
56329;SDS011;42236;48.058;10.632;2023-02-28T08:22:56;10.70;;;7.37;;
56329;SDS011;42236;48.058;10.632;2023-02-28T08:25:42;11.17;;;6.30;;
56329;SDS011;42236;48.058;10.632;2023-02-28T08:28:27;10.03;;;6.23;;
56329;SDS011;42236;48.058;10.632;2023-02-28T08:31:14;11.73;;;7.10;;
56329;SDS011;42236;48.058;10.632;2023-02-28T08:34:07;7.63;;;5.80;;
56329;SDS011;42236;48.058;10.632;2023-02-28T08:36:54;11.07;;;7.37;;
56329;SDS011;42236;48.058;10.632;2023-02-28T08:39:40;8.37;;;5.80;;
56329;SDS011;42236;48.058;10.632;2023-02-28T08:42:26;9.40;;;5.70;;
56329;SDS011;42236;48.058;10.632;2023-02-28T08:45:12;8.23;;;6.07;;
56329;SDS011;42236;48.058;10.632;2023-02-28T08:47:59;8.30;;;5.17;;
56329;SDS011;42236;48.058;10.632;2023-02-28T08:50:44;9.63;;;6.17;;
56329;SDS011;42236;48.058;10.632;2023-02-28T08:53:39;12.30;;;7.63;;
56329;SDS011;42236;48.058;10.632;2023-02-28T08:56:26;7.80;;;6.37;;
56329;SDS011;42236;48.058;10.632;2023-02-28T08:59:13;9.70;;;6.20;;
56329;SDS011;42236;48.058;10.632;2023-02-28T09:01:59;10.47;;;6.20;;
56329;SDS011;42236;48.058;10.632;2023-02-28T09:04:45;11.30;;;6.73;;
56329;SDS011;42236;48.058;10.632;2023-02-28T09:07:30;10.00;;;6.70;;
56329;SDS011;42236;48.058;10.632;2023-02-28T09:10:16;12.67;;;6.20;;
56329;SDS011;42236;48.058;10.632;2023-02-28T09:13:02;11.23;;;6.63;;
56329;SDS011;42236;48.058;10.632;2023-02-28T09:15:47;11.83;;;7.00;;
56329;SDS011;42236;48.058;10.632;2023-02-28T09:18:34;9.67;;;6.33;;
56329;SDS011;42236;48.058;10.632;2023-02-28T09:21:22;14.00;;;7.80;;
56329;SDS011;42236;48.058;10.632;2023-02-28T09:24:08;10.23;;;7.10;;
56329;SDS011;42236;48.058;10.632;2023-02-28T09:26:57;12.63;;;7.17;;
56329;SDS011;42236;48.058;10.632;2023-02-28T09:29:42;14.47;;;7.37;;
56329;SDS011;42236;48.058;10.632;2023-02-28T09:32:28;9.70;;;6.60;;
56329;SDS011;42236;48.058;10.632;2023-02-28T09:35:14;10.07;;;6.80;;
56329;SDS011;42236;48.058;10.632;2023-02-28T09:38:01;8.87;;;5.67;;
56329;SDS011;42236;48.058;10.632;2023-02-28T09:41:01;13.83;;;8.27;;
56329;SDS011;42236;48.058;10.632;2023-02-28T09:43:50;10.37;;;6.67;;
56329;SDS011;42236;48.058;10.632;2023-02-28T09:46:43;10.60;;;7.43;;
56329;SDS011;42236;48.058;10.632;2023-02-28T09:49:34;12.07;;;7.60;;
56329;SDS011;42236;48.058;10.632;2023-02-28T09:52:29;11.50;;;7.60;;
56329;SDS011;42236;48.058;10.632;2023-02-28T09:55:20;11.43;;;6.90;;
56329;SDS011;42236;48.058;10.632;2023-02-28T10:04:08;11.53;;;7.40;;
56329;SDS011;42236;48.058;10.632;2023-02-28T10:07:02;12.50;;;6.97;;
56329;SDS011;42236;48.058;10.632;2023-02-28T10:10:07;11.60;;;6.77;;
56329;SDS011;42236;48.058;10.632;2023-02-28T10:13:25;11.93;;;7.27;;
56329;SDS011;42236;48.058;10.632;2023-02-28T10:19:30;11.47;;;7.73;;
56329;SDS011;42236;48.058;10.632;2023-02-28T10:22:22;13.93;;;7.70;;
56329;SDS011;42236;48.058;10.632;2023-02-28T10:25:35;10.20;;;7.17;;
56329;SDS011;42236;48.058;10.632;2023-02-28T10:28:20;12.60;;;6.97;;
56329;SDS011;42236;48.058;10.632;2023-02-28T10:31:05;13.10;;;7.00;;
56329;SDS011;42236;48.058;10.632;2023-02-28T10:33:56;13.27;;;7.87;;
56329;SDS011;42236;48.058;10.632;2023-02-28T10:36:42;12.90;;;9.20;;
56329;SDS011;42236;48.058;10.632;2023-02-28T10:42:24;13.90;;;9.07;;
56329;SDS011;42236;48.058;10.632;2023-02-28T10:45:15;17.10;;;8.53;;
56329;SDS011;42236;48.058;10.632;2023-02-28T10:48:03;12.87;;;8.43;;
56329;SDS011;42236;48.058;10.632;2023-02-28T10:50:52;13.30;;;7.53;;
56329;SDS011;42236;48.058;10.632;2023-02-28T10:53:48;12.50;;;8.37;;
56329;SDS011;42236;48.058;10.632;2023-02-28T10:56:36;18.27;;;10.27;;
56329;SDS011;42236;48.058;10.632;2023-02-28T10:59:29;53.00;;;21.30;;
56329;SDS011;42236;48.058;10.632;2023-02-28T11:02:28;53.43;;;21.43;;
56329;SDS011;42236;48.058;10.632;2023-02-28T11:05:23;65.17;;;27.03;;
56329;SDS011;42236;48.058;10.632;2023-02-28T11:08:17;14.53;;;8.47;;
56329;SDS011;42236;48.058;10.632;2023-02-28T11:11:04;8.23;;;7.23;;
56329;SDS011;42236;48.058;10.632;2023-02-28T11:13:52;13.73;;;7.67;;
56329;SDS011;42236;48.058;10.632;2023-02-28T11:16:40;13.50;;;8.60;;
56329;SDS011;42236;48.058;10.632;2023-02-28T11:19:27;16.00;;;9.23;;
56329;SDS011;42236;48.058;10.632;2023-02-28T11:22:20;15.70;;;8.77;;
56329;SDS011;42236;48.058;10.632;2023-02-28T11:25:13;13.63;;;7.80;;
56329;SDS011;42236;48.058;10.632;2023-02-28T11:28:22;13.73;;;7.97;;
56329;SDS011;42236;48.058;10.632;2023-02-28T11:34:01;10.83;;;7.43;;
56329;SDS011;42236;48.058;10.632;2023-02-28T11:36:46;19.60;;;9.10;;
56329;SDS011;42236;48.058;10.632;2023-02-28T11:39:33;15.07;;;8.30;;
56329;SDS011;42236;48.058;10.632;2023-02-28T11:51:47;11.20;;;8.10;;
56329;SDS011;42236;48.058;10.632;2023-02-28T11:54:41;12.73;;;8.70;;
56329;SDS011;42236;48.058;10.632;2023-02-28T12:14:26;14.13;;;8.40;;
56329;SDS011;42236;48.058;10.632;2023-02-28T12:26:44;12.67;;;8.60;;
56329;SDS011;42236;48.058;10.632;2023-02-28T12:29:32;14.80;;;7.97;;
56329;SDS011;42236;48.058;10.632;2023-02-28T12:32:38;11.27;;;8.53;;
56329;SDS011;42236;48.058;10.632;2023-02-28T12:35:28;13.30;;;8.80;;
56329;SDS011;42236;48.058;10.632;2023-02-28T12:42:03;29.00;;;16.10;;
56329;SDS011;42236;48.058;10.632;2023-02-28T12:44:54;18.87;;;13.67;;
56329;SDS011;42236;48.058;10.632;2023-02-28T12:47:44;21.00;;;11.37;;
56329;SDS011;42236;48.058;10.632;2023-02-28T12:50:34;12.67;;;9.43;;
56329;SDS011;42236;48.058;10.632;2023-02-28T12:53:29;12.40;;;8.63;;
56329;SDS011;42236;48.058;10.632;2023-02-28T12:59:42;14.83;;;9.47;;
56329;SDS011;42236;48.058;10.632;2023-02-28T13:09:15;11.80;;;8.30;;
56329;SDS011;42236;48.058;10.632;2023-02-28T13:12:02;16.13;;;8.03;;
56329;SDS011;42236;48.058;10.632;2023-02-28T13:18:01;12.83;;;9.40;;
56329;SDS011;42236;48.058;10.632;2023-02-28T13:20:47;15.43;;;11.53;;
56329;SDS011;42236;48.058;10.632;2023-02-28T13:29:27;14.73;;;8.70;;
56329;SDS011;42236;48.058;10.632;2023-02-28T13:32:19;11.37;;;8.23;;
56329;SDS011;42236;48.058;10.632;2023-02-28T13:37:54;14.37;;;7.77;;
56329;SDS011;42236;48.058;10.632;2023-02-28T13:44:18;13.67;;;9.47;;
56329;SDS011;42236;48.058;10.632;2023-02-28T13:47:38;10.80;;;7.87;;
56329;SDS011;42236;48.058;10.632;2023-02-28T13:58:54;10.77;;;7.50;;
56329;SDS011;42236;48.058;10.632;2023-02-28T14:07:47;12.37;;;8.20;;
56329;SDS011;42236;48.058;10.632;2023-02-28T14:10:42;11.53;;;8.47;;
56329;SDS011;42236;48.058;10.632;2023-02-28T14:19:26;14.13;;;7.90;;
56329;SDS011;42236;48.058;10.632;2023-02-28T14:31:29;13.90;;;8.63;;
56329;SDS011;42236;48.058;10.632;2023-02-28T14:34:26;12.87;;;7.83;;
56329;SDS011;42236;48.058;10.632;2023-02-28T14:37:29;14.93;;;8.37;;
56329;SDS011;42236;48.058;10.632;2023-02-28T14:40:19;13.93;;;8.63;;
56329;SDS011;42236;48.058;10.632;2023-02-28T14:43:19;11.13;;;7.90;;
56329;SDS011;42236;48.058;10.632;2023-02-28T14:46:06;14.43;;;8.90;;
56329;SDS011;42236;48.058;10.632;2023-02-28T14:48:52;17.33;;;11.33;;
56329;SDS011;42236;48.058;10.632;2023-02-28T14:51:38;13.67;;;8.63;;
56329;SDS011;42236;48.058;10.632;2023-02-28T14:54:24;11.10;;;7.67;;
56329;SDS011;42236;48.058;10.632;2023-02-28T14:57:20;14.37;;;9.07;;
56329;SDS011;42236;48.058;10.632;2023-02-28T15:00:17;11.93;;;8.50;;
56329;SDS011;42236;48.058;10.632;2023-02-28T15:03:18;12.17;;;7.90;;
56329;SDS011;42236;48.058;10.632;2023-02-28T15:06:15;13.43;;;7.93;;
56329;SDS011;42236;48.058;10.632;2023-02-28T15:09:10;12.53;;;8.30;;
56329;SDS011;42236;48.058;10.632;2023-02-28T15:12:00;11.30;;;7.60;;
56329;SDS011;42236;48.058;10.632;2023-02-28T15:14:46;11.77;;;8.10;;
56329;SDS011;42236;48.058;10.632;2023-02-28T15:17:32;10.97;;;6.77;;
56329;SDS011;42236;48.058;10.632;2023-02-28T15:20:19;11.03;;;8.07;;
56329;SDS011;42236;48.058;10.632;2023-02-28T15:23:05;11.30;;;7.63;;
56329;SDS011;42236;48.058;10.632;2023-02-28T15:25:51;11.17;;;7.53;;
56329;SDS011;42236;48.058;10.632;2023-02-28T15:28:38;9.77;;;7.07;;
56329;SDS011;42236;48.058;10.632;2023-02-28T15:31:28;11.60;;;8.03;;
56329;SDS011;42236;48.058;10.632;2023-02-28T15:34:21;9.20;;;7.60;;
56329;SDS011;42236;48.058;10.632;2023-02-28T15:40:36;11.80;;;7.87;;
56329;SDS011;42236;48.058;10.632;2023-02-28T15:43:30;10.27;;;7.90;;
56329;SDS011;42236;48.058;10.632;2023-02-28T15:46:18;9.97;;;7.60;;
56329;SDS011;42236;48.058;10.632;2023-02-28T15:49:04;11.37;;;7.43;;
56329;SDS011;42236;48.058;10.632;2023-02-28T15:51:51;9.67;;;7.43;;
56329;SDS011;42236;48.058;10.632;2023-02-28T15:54:38;10.27;;;7.60;;
56329;SDS011;42236;48.058;10.632;2023-02-28T15:57:24;18.53;;;7.30;;
56329;SDS011;42236;48.058;10.632;2023-02-28T16:00:18;9.03;;;7.47;;
56329;SDS011;42236;48.058;10.632;2023-02-28T16:03:23;11.27;;;7.50;;
56329;SDS011;42236;48.058;10.632;2023-02-28T16:06:21;11.97;;;8.23;;
56329;SDS011;42236;48.058;10.632;2023-02-28T16:09:16;15.53;;;7.70;;
56329;SDS011;42236;48.058;10.632;2023-02-28T16:12:02;13.80;;;8.83;;
56329;SDS011;42236;48.058;10.632;2023-02-28T16:14:49;14.53;;;9.37;;
56329;SDS011;42236;48.058;10.632;2023-02-28T16:17:38;15.00;;;9.20;;
56329;SDS011;42236;48.058;10.632;2023-02-28T16:20:25;17.53;;;10.20;;
56329;SDS011;42236;48.058;10.632;2023-02-28T16:23:12;12.50;;;9.03;;
56329;SDS011;42236;48.058;10.632;2023-02-28T16:25:58;13.77;;;9.03;;
56329;SDS011;42236;48.058;10.632;2023-02-28T16:28:44;13.20;;;8.63;;
56329;SDS011;42236;48.058;10.632;2023-02-28T16:31:30;14.47;;;10.07;;
56329;SDS011;42236;48.058;10.632;2023-02-28T16:34:20;11.47;;;8.07;;
56329;SDS011;42236;48.058;10.632;2023-02-28T16:37:13;12.10;;;8.90;;
56329;SDS011;42236;48.058;10.632;2023-02-28T16:40:01;13.37;;;9.50;;
56329;SDS011;42236;48.058;10.632;2023-02-28T16:42:47;15.53;;;9.93;;
56329;SDS011;42236;48.058;10.632;2023-02-28T16:45:37;16.40;;;10.03;;
56329;SDS011;42236;48.058;10.632;2023-02-28T16:48:23;14.90;;;9.67;;
56329;SDS011;42236;48.058;10.632;2023-02-28T16:51:12;13.40;;;8.97;;
56329;SDS011;42236;48.058;10.632;2023-02-28T16:53:59;19.93;;;11.33;;
56329;SDS011;42236;48.058;10.632;2023-02-28T16:56:46;12.97;;;10.13;;
56329;SDS011;42236;48.058;10.632;2023-02-28T16:59:33;15.60;;;9.60;;
56329;SDS011;42236;48.058;10.632;2023-02-28T17:02:19;15.40;;;10.70;;
56329;SDS011;42236;48.058;10.632;2023-02-28T17:05:05;13.37;;;9.53;;
56329;SDS011;42236;48.058;10.632;2023-02-28T17:07:51;14.57;;;9.27;;
56329;SDS011;42236;48.058;10.632;2023-02-28T17:10:37;13.57;;;8.87;;
56329;SDS011;42236;48.058;10.632;2023-02-28T17:13:22;16.63;;;10.07;;
56329;SDS011;42236;48.058;10.632;2023-02-28T17:16:20;14.37;;;9.77;;
56329;SDS011;42236;48.058;10.632;2023-02-28T17:19:14;19.00;;;10.83;;
56329;SDS011;42236;48.058;10.632;2023-02-28T17:22:01;21.00;;;12.07;;
56329;SDS011;42236;48.058;10.632;2023-02-28T17:24:48;22.37;;;11.73;;
56329;SDS011;42236;48.058;10.632;2023-02-28T17:27:34;21.33;;;12.50;;
56329;SDS011;42236;48.058;10.632;2023-02-28T17:30:21;20.40;;;11.70;;
56329;SDS011;42236;48.058;10.632;2023-02-28T17:33:08;18.70;;;11.57;;
56329;SDS011;42236;48.058;10.632;2023-02-28T17:35:54;24.77;;;12.30;;
56329;SDS011;42236;48.058;10.632;2023-02-28T17:38:39;17.87;;;11.07;;
56329;SDS011;42236;48.058;10.632;2023-02-28T17:41:25;22.03;;;12.87;;
56329;SDS011;42236;48.058;10.632;2023-02-28T17:44:11;21.07;;;12.83;;
56329;SDS011;42236;48.058;10.632;2023-02-28T17:46:57;22.77;;;13.33;;
56329;SDS011;42236;48.058;10.632;2023-02-28T17:49:44;23.77;;;14.73;;
56329;SDS011;42236;48.058;10.632;2023-02-28T17:52:30;25.10;;;14.50;;
56329;SDS011;42236;48.058;10.632;2023-02-28T17:55:16;27.43;;;16.07;;
56329;SDS011;42236;48.058;10.632;2023-02-28T17:58:02;33.87;;;17.53;;
56329;SDS011;42236;48.058;10.632;2023-02-28T18:00:48;28.97;;;15.33;;
56329;SDS011;42236;48.058;10.632;2023-02-28T18:03:39;19.83;;;12.27;;
56329;SDS011;42236;48.058;10.632;2023-02-28T18:06:25;20.20;;;12.60;;
56329;SDS011;42236;48.058;10.632;2023-02-28T18:09:17;20.30;;;12.50;;
56329;SDS011;42236;48.058;10.632;2023-02-28T18:12:07;22.40;;;13.03;;
56329;SDS011;42236;48.058;10.632;2023-02-28T18:14:53;23.10;;;13.63;;
56329;SDS011;42236;48.058;10.632;2023-02-28T18:17:39;23.17;;;14.07;;
56329;SDS011;42236;48.058;10.632;2023-02-28T18:20:25;22.60;;;14.47;;
56329;SDS011;42236;48.058;10.632;2023-02-28T18:23:11;22.80;;;13.63;;
56329;SDS011;42236;48.058;10.632;2023-02-28T18:25:57;22.77;;;13.73;;
56329;SDS011;42236;48.058;10.632;2023-02-28T18:28:43;22.93;;;13.50;;
56329;SDS011;42236;48.058;10.632;2023-02-28T18:31:29;23.47;;;14.63;;
56329;SDS011;42236;48.058;10.632;2023-02-28T18:34:16;24.60;;;15.40;;
56329;SDS011;42236;48.058;10.632;2023-02-28T18:37:02;25.93;;;14.70;;
56329;SDS011;42236;48.058;10.632;2023-02-28T18:39:48;23.80;;;14.27;;
56329;SDS011;42236;48.058;10.632;2023-02-28T18:42:34;26.90;;;13.47;;
56329;SDS011;42236;48.058;10.632;2023-02-28T18:45:19;25.93;;;14.10;;
56329;SDS011;42236;48.058;10.632;2023-02-28T18:48:05;29.20;;;15.60;;
56329;SDS011;42236;48.058;10.632;2023-02-28T18:50:51;25.83;;;14.70;;
56329;SDS011;42236;48.058;10.632;2023-02-28T18:53:38;28.97;;;14.53;;
56329;SDS011;42236;48.058;10.632;2023-02-28T18:56:24;23.90;;;13.43;;
56329;SDS011;42236;48.058;10.632;2023-02-28T18:59:11;23.97;;;15.63;;
56329;SDS011;42236;48.058;10.632;2023-02-28T19:01:56;26.07;;;14.90;;